createdAt,value
2022-08-08T00:00:53.598Z,14.70
2022-08-08T00:03:31.272Z,14.57
2022-08-08T00:06:16.655Z,14.40
2022-08-08T00:09:07.862Z,14.33
2022-08-08T00:12:07.231Z,14.29
2022-08-08T00:14:54.787Z,14.30
2022-08-08T00:17:58.761Z,14.27
2022-08-08T00:20:20.431Z,14.23
2022-08-08T00:22:53.487Z,14.27
2022-08-08T00:25:51.014Z,14.26
2022-08-08T00:28:35.705Z,14.21
2022-08-08T00:32:21.320Z,14.17
2022-08-08T00:34:56.329Z,14.13
2022-08-08T00:37:47.765Z,14.03
2022-08-08T00:41:11.940Z,13.99
2022-08-08T00:44:03.533Z,14.13
2022-08-08T00:46:58.182Z,14.22
2022-08-08T00:49:50.340Z,14.23
2022-08-08T00:52:56.651Z,14.20
2022-08-08T00:55:35.912Z,14.23
2022-08-08T00:58:43.698Z,14.24
2022-08-08T01:01:29.199Z,14.21
2022-08-08T01:04:16.462Z,14.27
2022-08-08T01:07:20.859Z,14.18
2022-08-08T01:09:50.911Z,14.12
2022-08-08T01:12:31.191Z,14.12
2022-08-08T01:15:43.532Z,14.00
2022-08-08T01:18:53.396Z,13.91
2022-08-08T01:22:11.746Z,13.87
2022-08-08T01:25:09.979Z,13.73
2022-08-08T01:27:48.947Z,13.67
2022-08-08T01:30:53.708Z,13.54
2022-08-08T01:34:00.219Z,13.39
2022-08-08T01:36:42.746Z,13.43
2022-08-08T01:39:34.851Z,13.52
2022-08-08T01:42:19.869Z,13.60
2022-08-08T01:45:37.675Z,13.51
2022-08-08T01:48:30.317Z,13.46
2022-08-08T01:51:06.085Z,13.35
2022-08-08T01:55:19.690Z,13.31
2022-08-08T01:56:47.063Z,13.24
2022-08-08T01:59:38.113Z,13.26
2022-08-08T02:02:48.706Z,13.18
2022-08-08T02:05:56.829Z,13.05
2022-08-08T02:08:54.511Z,12.87
2022-08-08T02:11:52.855Z,12.94
2022-08-08T02:14:50.065Z,12.63
2022-08-08T02:17:51.329Z,12.55
2022-08-08T02:21:02.804Z,12.65
2022-08-08T02:23:32.037Z,12.76
2022-08-08T02:26:08.133Z,12.74
2022-08-08T02:28:48.462Z,12.72
2022-08-08T02:31:59.506Z,12.56
2022-08-08T02:35:10.963Z,12.72
2022-08-08T02:37:56.913Z,12.76
2022-08-08T02:41:07.790Z,12.75
2022-08-08T02:44:42.357Z,12.68
2022-08-08T02:47:13.005Z,12.58
2022-08-08T02:50:03.609Z,12.51
2022-08-08T02:52:42.116Z,12.45
2022-08-08T02:55:31.921Z,12.41
2022-08-08T02:58:47.587Z,12.28
2022-08-08T03:01:14.942Z,12.25
2022-08-08T03:05:03.296Z,12.19
2022-08-08T03:07:19.773Z,12.03
2022-08-08T03:10:33.604Z,11.94
2022-08-08T03:16:01.577Z,11.93
2022-08-08T03:17:04.691Z,12.05
2022-08-08T03:19:55.774Z,12.15
2022-08-08T03:22:38.432Z,12.02
2022-08-08T03:25:17.868Z,11.95
2022-08-08T03:27:56.672Z,11.80
2022-08-08T03:30:24.744Z,11.75
2022-08-08T03:33:58.138Z,11.70
2022-08-08T03:35:58.660Z,11.62
2022-08-08T03:38:54.903Z,11.68
2022-08-08T03:42:12.167Z,11.76
2022-08-08T03:43:59.688Z,11.79
2022-08-08T03:46:32.621Z,11.75
2022-08-08T03:49:38.100Z,11.71
2022-08-08T03:51:55.792Z,11.66
2022-08-08T03:54:41.590Z,11.70
2022-08-08T03:58:35.175Z,11.51
2022-08-08T04:00:11.735Z,11.39
2022-08-08T04:02:47.544Z,11.48
2022-08-08T04:05:19.170Z,11.49
2022-08-08T04:07:46.408Z,11.60
2022-08-08T04:10:13.048Z,11.63
2022-08-08T04:12:41.355Z,11.62
2022-08-08T04:15:08.400Z,11.64
2022-08-08T04:17:57.680Z,11.65
2022-08-08T04:20:28.394Z,11.77
2022-08-08T04:22:57.243Z,11.89
2022-08-08T04:25:29.861Z,12.00
2022-08-08T04:28:34.498Z,12.21
2022-08-08T04:30:44.680Z,12.30
2022-08-08T04:33:11.524Z,12.46
2022-08-08T04:35:40.393Z,12.48
2022-08-08T04:38:21.105Z,12.61
2022-08-08T04:40:53.509Z,12.64
2022-08-08T04:43:32.216Z,12.78
2022-08-08T04:46:09.360Z,13.27
2022-08-08T04:48:36.625Z,14.25
2022-08-08T04:51:03.159Z,15.03
2022-08-08T04:54:36.479Z,15.54
2022-08-08T04:56:17.631Z,15.65
2022-08-08T04:58:44.466Z,16.15
2022-08-08T05:01:14.915Z,16.49
2022-08-08T05:04:09.153Z,16.73
2022-08-08T05:06:29.058Z,16.80
2022-08-08T05:09:02.862Z,17.85
2022-08-08T05:11:38.591Z,16.55
2022-08-08T05:14:20.699Z,16.09
2022-08-08T05:16:53.575Z,15.62
2022-08-08T05:20:10.985Z,15.50
2022-08-08T05:22:17.355Z,15.46
2022-08-08T05:24:48.582Z,15.27
2022-08-08T05:27:15.716Z,15.40
2022-08-08T05:29:42.370Z,15.74
2022-08-08T05:32:09.502Z,15.60
2022-08-08T05:34:59.166Z,15.71
2022-08-08T05:37:49.084Z,15.61
2022-08-08T05:40:21.496Z,15.71
2022-08-08T05:43:02.140Z,16.02
2022-08-08T05:45:42.725Z,15.89
2022-08-08T05:48:11.999Z,16.39
2022-08-08T05:50:41.905Z,16.25
2022-08-08T05:53:54.202Z,16.24
2022-08-08T05:56:10.601Z,16.24
2022-08-08T05:58:53.894Z,16.25
2022-08-08T06:01:56.696Z,16.50
2022-08-08T06:04:23.059Z,16.61
2022-08-08T06:06:53.228Z,16.96
2022-08-08T06:09:41.525Z,17.04
2022-08-08T06:12:14.282Z,17.30
2022-08-08T06:14:48.960Z,17.59
2022-08-08T06:17:19.252Z,17.68
2022-08-08T06:19:47.793Z,17.93
2022-08-08T06:25:01.203Z,18.36
2022-08-08T06:27:57.719Z,18.62
2022-08-08T06:30:28.568Z,18.78
2022-08-08T06:32:57.646Z,19.10
2022-08-08T06:36:08.191Z,19.54
2022-08-08T06:38:19.240Z,19.23
2022-08-08T06:40:54.119Z,19.43
2022-08-08T06:43:28.763Z,19.43
2022-08-08T06:46:02.121Z,19.52
2022-08-08T06:48:29.551Z,19.83
2022-08-08T06:50:57.976Z,19.92
2022-08-08T06:53:39.327Z,19.50
2022-08-08T06:56:09.151Z,19.63
2022-08-08T06:58:37.030Z,19.57
2022-08-08T07:01:11.767Z,19.66
2022-08-08T07:04:36.371Z,19.82
2022-08-08T07:07:10.384Z,19.90
2022-08-08T07:09:56.429Z,19.97
2022-08-08T07:12:40.948Z,20.40
2022-08-08T07:15:32.529Z,20.63
2022-08-08T07:18:35.112Z,20.88
2022-08-08T07:21:02.182Z,21.13
2022-08-08T07:24:01.178Z,21.41
2022-08-08T07:26:35.670Z,21.57
2022-08-08T07:29:05.506Z,22.02
2022-08-08T07:31:36.456Z,22.51
2022-08-08T07:34:08.633Z,22.26
2022-08-08T07:36:35.876Z,21.59
2022-08-08T07:39:05.623Z,22.50
2022-08-08T07:41:58.790Z,24.39
2022-08-08T07:44:37.473Z,27.72
2022-08-08T07:47:08.031Z,26.54
2022-08-08T07:49:34.767Z,27.24
2022-08-08T07:52:03.240Z,28.27
2022-08-08T07:54:45.942Z,29.34
2022-08-08T07:57:17.319Z,30.90
2022-08-08T08:00:16.201Z,31.32
2022-08-08T08:02:47.703Z,33.24
2022-08-08T08:05:33.278Z,35.07
2022-08-08T08:08:06.907Z,35.11
2022-08-08T08:10:36.082Z,31.71
2022-08-08T08:13:25.146Z,29.22
2022-08-08T08:16:04.909Z,30.07
2022-08-08T08:18:51.686Z,30.16
2022-08-08T08:21:19.928Z,29.28
2022-08-08T08:24:02.958Z,28.76
2022-08-08T08:26:29.675Z,28.11
2022-08-08T08:28:58.807Z,28.45
2022-08-08T08:31:25.886Z,26.82
2022-08-08T08:33:53.161Z,30.33
2022-08-08T08:36:21.796Z,31.18
2022-08-08T08:38:49.242Z,30.72
2022-08-08T08:41:20.133Z,30.56
2022-08-08T08:44:13.517Z,29.29
2022-08-08T08:46:41.367Z,28.20
2022-08-08T08:49:15.738Z,29.39
2022-08-08T08:51:51.084Z,31.29
2022-08-08T08:54:25.200Z,33.03
2022-08-08T08:56:53.018Z,36.27
2022-08-08T08:59:58.878Z,36.62
2022-08-08T09:02:29.986Z,36.19
2022-08-08T09:05:03.648Z,36.33
2022-08-08T09:07:39.138Z,35.88
2022-08-08T09:10:28.891Z,34.24
2022-08-08T09:12:56.260Z,31.96
2022-08-08T09:15:41.568Z,31.22
2022-08-08T09:18:11.079Z,31.34
2022-08-08T09:21:59.246Z,30.94
2022-08-08T09:23:33.626Z,30.80
2022-08-08T09:26:56.535Z,31.31
2022-08-08T09:29:24.948Z,32.11
2022-08-08T09:31:56.841Z,34.06
2022-08-08T09:34:32.483Z,34.21
2022-08-08T09:37:57.336Z,33.00
2022-08-08T09:40:10.859Z,32.39
2022-08-08T09:42:51.107Z,32.53
2022-08-08T09:45:55.174Z,32.49
2022-08-08T09:48:26.951Z,33.89
2022-08-08T09:50:59.185Z,32.94
2022-08-08T09:53:59.383Z,32.65
2022-08-08T09:56:49.005Z,32.85
2022-08-08T10:00:02.854Z,33.84
2022-08-08T10:02:47.765Z,32.81
2022-08-08T10:08:50.430Z,34.29
2022-08-08T10:18:40.591Z,34.42
2022-08-08T10:21:25.596Z,34.73
2022-08-08T10:24:28.351Z,32.65
2022-08-08T10:27:00.774Z,31.14
2022-08-08T10:29:58.350Z,32.72
2022-08-08T10:32:39.095Z,32.35
2022-08-08T10:35:20.475Z,33.81
2022-08-08T10:38:07.922Z,33.80
2022-08-08T10:40:37.901Z,32.71
2022-08-08T10:43:06.655Z,32.64
2022-08-08T10:45:55.793Z,33.77
2022-08-08T10:48:58.353Z,31.86
2022-08-08T10:51:24.346Z,33.76
2022-08-08T10:53:57.391Z,34.72
2022-08-08T10:56:26.949Z,33.28
2022-08-08T10:58:59.745Z,33.38
2022-08-08T11:01:33.657Z,31.65
2022-08-08T11:04:02.533Z,33.34
2022-08-08T11:06:35.763Z,33.96
2022-08-08T11:09:04.051Z,34.21
2022-08-08T11:12:05.730Z,34.09
2022-08-08T11:14:32.147Z,33.22
2022-08-08T11:16:58.931Z,34.25
2022-08-08T11:19:27.858Z,35.35
2022-08-08T11:21:56.471Z,33.95
2022-08-08T11:24:25.185Z,32.86
2022-08-08T11:26:56.266Z,32.69
2022-08-08T11:29:41.566Z,33.76
2022-08-08T11:32:14.360Z,33.29
2022-08-08T11:35:24.438Z,32.85
2022-08-08T11:38:36.161Z,32.66
2022-08-08T11:40:21.479Z,33.20
2022-08-08T11:42:54.649Z,32.65
2022-08-08T11:45:22.611Z,31.83
2022-08-08T11:48:04.492Z,31.47
2022-08-08T11:50:34.010Z,32.80
2022-08-08T11:53:05.857Z,33.37
2022-08-08T11:55:36.388Z,31.97
2022-08-08T11:58:15.232Z,32.79
2022-08-08T12:00:51.167Z,31.80
2022-08-08T12:03:20.994Z,30.93
2022-08-08T12:05:48.948Z,32.46
2022-08-08T12:08:17.168Z,32.89
2022-08-08T12:10:49.034Z,33.06
2022-08-08T12:13:33.390Z,32.52
2022-08-08T12:16:16.976Z,30.07
2022-08-08T12:18:55.020Z,31.42
2022-08-08T12:21:25.832Z,31.36
2022-08-08T12:24:14.783Z,32.73
2022-08-08T12:26:50.077Z,31.39
2022-08-08T12:29:41.013Z,31.89
2022-08-08T12:32:20.629Z,32.77
2022-08-08T12:35:13.697Z,33.86
2022-08-08T12:38:01.418Z,33.40
2022-08-08T12:40:38.061Z,32.09
2022-08-08T12:43:40.179Z,30.64
2022-08-08T12:46:19.303Z,31.65
2022-08-08T12:51:59.347Z,32.56
2022-08-08T12:54:36.825Z,31.81
2022-08-08T12:57:14.219Z,31.76
2022-08-08T13:00:03.517Z,30.51
2022-08-08T13:02:37.007Z,31.80
2022-08-08T13:05:25.518Z,31.88
2022-08-08T13:08:02.373Z,30.20
2022-08-08T13:10:32.950Z,29.66
2022-08-08T13:13:05.813Z,30.28
2022-08-08T13:15:35.536Z,30.48
2022-08-08T13:18:10.392Z,31.19
2022-08-08T13:20:48.936Z,29.77
2022-08-08T13:23:36.645Z,30.68
2022-08-08T13:26:15.093Z,30.41
2022-08-08T13:28:42.856Z,30.81
2022-08-08T13:31:16.564Z,29.16
2022-08-08T13:33:47.315Z,29.93
2022-08-08T13:36:17.949Z,28.06
2022-08-08T13:38:53.034Z,29.01
2022-08-08T13:41:19.725Z,28.83
2022-08-08T13:43:50.809Z,30.28
2022-08-08T13:46:27.249Z,28.34
2022-08-08T13:49:12.283Z,27.92
2022-08-08T13:51:54.223Z,27.29
2022-08-08T13:54:22.729Z,26.94
2022-08-08T13:58:00.779Z,26.70
2022-08-08T14:00:19.014Z,26.56
2022-08-08T14:02:57.312Z,26.61
2022-08-08T14:05:28.601Z,26.55
2022-08-08T14:08:16.320Z,26.78
2022-08-08T14:10:43.622Z,26.40
2022-08-08T14:13:30.628Z,26.59
2022-08-08T14:16:16.127Z,26.32
2022-08-08T14:19:00.894Z,26.35
2022-08-08T14:21:49.037Z,26.51
2022-08-08T14:24:32.149Z,26.54
2022-08-08T14:26:58.670Z,26.46
2022-08-08T14:29:30.119Z,26.18
2022-08-08T14:32:11.487Z,26.11
2022-08-08T14:34:42.221Z,26.26
2022-08-08T14:37:09.873Z,26.22
2022-08-08T14:40:06.103Z,26.11
2022-08-08T14:42:47.298Z,26.16
2022-08-08T14:45:29.031Z,25.99
2022-08-08T14:48:04.298Z,25.91
2022-08-08T14:50:37.905Z,26.10
2022-08-08T14:53:13.453Z,26.24
2022-08-08T14:55:42.281Z,25.91
2022-08-08T14:58:11.989Z,25.34
2022-08-08T15:00:45.023Z,25.05
2022-08-08T15:03:16.279Z,25.17
2022-08-08T15:05:53.423Z,25.25
2022-08-08T15:08:35.484Z,25.46
2022-08-08T15:11:09.200Z,25.50
2022-08-08T15:13:40.892Z,25.61
2022-08-08T15:16:23.333Z,25.79
2022-08-08T15:18:51.743Z,25.72
2022-08-08T15:21:20.668Z,25.39
2022-08-08T15:23:51.109Z,25.26
2022-08-08T15:26:20.207Z,25.17
2022-08-08T15:28:50.887Z,25.13
2022-08-08T15:31:25.678Z,25.13
2022-08-08T15:34:08.481Z,25.14
2022-08-08T15:36:35.397Z,25.02
2022-08-08T15:39:03.907Z,24.74
2022-08-08T15:41:43.467Z,24.63
2022-08-08T15:44:13.384Z,24.43
2022-08-08T15:46:45.671Z,24.46
2022-08-08T15:49:20.504Z,24.47
2022-08-08T15:51:48.371Z,24.50
2022-08-08T15:54:18.908Z,24.68
2022-08-08T15:57:04.138Z,24.97
2022-08-08T16:00:06.702Z,24.91
2022-08-08T16:02:21.522Z,24.96
2022-08-08T16:04:48.383Z,25.13
2022-08-08T16:07:21.197Z,24.97
2022-08-08T16:13:03.642Z,24.97
2022-08-08T16:13:28.723Z,24.80
2022-08-08T16:15:20.911Z,24.74
2022-08-08T16:18:06.741Z,24.52
2022-08-08T16:20:36.198Z,24.48
2022-08-08T16:23:02.934Z,24.33
2022-08-08T16:25:46.400Z,24.30
2022-08-08T16:28:22.793Z,24.22
2022-08-08T16:31:00.800Z,24.14
2022-08-08T16:33:39.154Z,24.04
2022-08-08T16:36:08.934Z,23.97
2022-08-08T16:38:44.544Z,23.89
2022-08-08T16:41:18.428Z,23.71
2022-08-08T16:43:50.756Z,23.66
2022-08-08T16:46:42.886Z,23.69
2022-08-08T16:49:08.977Z,23.80
2022-08-08T16:55:01.956Z,23.84
2022-08-08T16:55:04.473Z,23.73
2022-08-08T16:58:11.874Z,23.66
2022-08-08T17:00:01.321Z,23.67
2022-08-08T17:02:39.541Z,23.66
2022-08-08T17:05:13.003Z,23.79
2022-08-08T17:07:42.001Z,23.89
2022-08-08T17:10:16.961Z,23.89
2022-08-08T17:12:47.055Z,23.84
2022-08-08T17:15:21.081Z,23.83
2022-08-08T17:18:02.673Z,23.84
2022-08-08T17:20:31.887Z,23.74
2022-08-08T17:23:16.407Z,23.62
2022-08-08T17:25:52.518Z,23.56
2022-08-08T17:28:28.812Z,23.50
2022-08-08T17:31:43.341Z,23.50
2022-08-08T17:34:53.240Z,23.44
2022-08-08T17:37:00.172Z,23.42
2022-08-08T17:40:04.495Z,23.32
2022-08-08T17:42:12.717Z,23.21
2022-08-08T17:44:39.867Z,23.10
2022-08-08T17:47:10.961Z,23.05
2022-08-08T17:49:43.582Z,23.10
2022-08-08T17:52:10.615Z,23.07
2022-08-08T17:54:37.295Z,22.97
2022-08-08T17:57:04.036Z,22.91
2022-08-08T17:59:36.135Z,22.85
2022-08-08T18:02:04.140Z,22.67
2022-08-08T18:04:32.938Z,22.52
2022-08-08T18:08:02.649Z,22.55
2022-08-08T18:09:54.148Z,22.41
2022-08-08T18:12:21.782Z,22.30
2022-08-08T18:14:50.635Z,22.31
2022-08-08T18:17:28.737Z,22.02
2022-08-08T18:20:43.703Z,21.81
2022-08-08T18:22:53.381Z,21.73
2022-08-08T18:25:19.987Z,21.55
2022-08-08T18:27:46.533Z,21.51
2022-08-08T18:30:13.297Z,21.43
2022-08-08T18:32:42.145Z,21.23
2022-08-08T18:35:15.787Z,21.03
2022-08-08T18:37:48.158Z,20.87
2022-08-08T18:40:15.334Z,20.80
2022-08-08T18:42:50.105Z,20.80
2022-08-08T18:46:52.464Z,20.87
2022-08-08T18:48:07.683Z,20.65
2022-08-08T18:50:39.696Z,20.57
2022-08-08T18:53:22.475Z,20.48
2022-08-08T18:55:49.124Z,20.21
2022-08-08T18:58:15.806Z,20.14
2022-08-08T19:00:46.435Z,19.97
2022-08-08T19:03:13.553Z,19.75
2022-08-08T19:05:45.539Z,19.68
2022-08-08T19:08:23.921Z,19.50
2022-08-08T19:10:53.731Z,19.30
2022-08-08T19:13:24.306Z,19.09
2022-08-08T19:15:55.586Z,18.87
2022-08-08T19:18:32.309Z,18.60
2022-08-08T19:21:30.001Z,18.45
2022-08-08T19:23:56.137Z,18.33
2022-08-08T19:26:29.088Z,18.17
2022-08-08T19:28:56.322Z,18.00
2022-08-08T19:31:31.794Z,17.92
2022-08-08T19:34:36.252Z,17.90
2022-08-08T19:36:52.133Z,17.88
2022-08-08T19:39:19.404Z,17.74
2022-08-08T19:41:46.327Z,17.74
2022-08-08T19:44:26.804Z,17.69
2022-08-08T19:47:01.587Z,17.66
2022-08-08T19:49:29.158Z,17.59
2022-08-08T19:52:04.578Z,17.51
2022-08-08T19:54:32.004Z,17.38
2022-08-08T19:56:58.924Z,17.27
2022-08-08T19:59:31.030Z,17.27
2022-08-08T20:02:04.437Z,17.06
2022-08-08T20:04:32.367Z,17.11
2022-08-08T20:07:05.069Z,17.01
2022-08-08T20:09:56.098Z,16.92
2022-08-08T20:12:32.854Z,16.84
2022-08-08T20:15:16.897Z,16.76
2022-08-08T20:17:45.811Z,16.66
2022-08-08T20:20:18.863Z,16.58
2022-08-08T20:22:53.848Z,16.48
2022-08-08T20:25:22.702Z,16.29
2022-08-08T20:27:53.954Z,16.28
2022-08-08T20:30:53.744Z,16.21
2022-08-08T20:33:19.841Z,16.21
2022-08-08T20:35:58.629Z,16.12
2022-08-08T20:38:32.965Z,16.10
2022-08-08T20:41:05.669Z,16.11
2022-08-08T20:43:49.406Z,15.94
2022-08-08T20:46:17.367Z,15.95
2022-08-08T20:48:46.715Z,15.86
2022-08-08T20:51:14.345Z,15.82
2022-08-08T20:53:59.262Z,15.81
2022-08-08T20:56:35.745Z,15.79
2022-08-08T20:59:16.058Z,15.89
2022-08-08T21:02:06.403Z,15.85
2022-08-08T21:04:35.264Z,15.94
2022-08-08T21:07:04.947Z,15.93
2022-08-08T21:10:02.148Z,16.01
2022-08-08T21:12:33.062Z,16.05
2022-08-08T21:15:07.066Z,16.01
2022-08-08T21:17:36.771Z,16.02
2022-08-08T21:20:04.260Z,15.96
2022-08-08T21:22:30.928Z,15.94
2022-08-08T21:24:58.397Z,15.78
2022-08-08T21:28:06.309Z,15.63
2022-08-08T21:30:19.369Z,15.58
2022-08-08T21:32:51.886Z,15.45
2022-08-08T21:36:14.288Z,15.50
2022-08-08T21:38:08.486Z,15.41
2022-08-08T21:40:55.075Z,15.23
2022-08-08T21:43:31.346Z,15.10
2022-08-08T21:48:05.598Z,14.95
2022-08-08T21:48:53.309Z,14.93
2022-08-08T21:54:17.815Z,14.95
2022-08-08T21:54:31.996Z,14.84
2022-08-08T21:56:59.301Z,14.80
2022-08-08T21:59:28.493Z,14.84
2022-08-08T22:02:13.391Z,14.85
2022-08-08T22:04:42.637Z,14.78
2022-08-08T22:07:09.162Z,14.69
2022-08-08T22:09:41.278Z,14.66
2022-08-08T22:12:15.049Z,14.47
2022-08-08T22:14:49.859Z,14.44
2022-08-08T22:17:18.347Z,14.30
2022-08-08T22:20:11.087Z,14.25
2022-08-08T22:22:38.231Z,14.09
2022-08-08T22:25:19.649Z,14.13
2022-08-08T22:28:04.077Z,14.06
2022-08-08T22:30:42.343Z,14.02
2022-08-08T22:34:11.225Z,13.93
2022-08-08T22:36:04.327Z,13.79
2022-08-08T22:38:48.568Z,13.85
2022-08-08T22:41:21.582Z,13.89
2022-08-08T22:44:02.972Z,13.78
2022-08-08T22:46:38.912Z,13.81
2022-08-08T22:49:06.870Z,13.80
2022-08-08T22:51:42.707Z,13.68
2022-08-08T22:54:31.232Z,13.64
2022-08-08T22:57:00.209Z,13.67
2022-08-08T22:59:27.160Z,13.66
2022-08-08T23:02:13.092Z,13.56
2022-08-08T23:04:55.873Z,13.38
2022-08-08T23:07:24.225Z,13.36
2022-08-08T23:10:11.177Z,13.20
2022-08-08T23:12:40.418Z,13.06
2022-08-08T23:16:39.725Z,12.96
2022-08-08T23:17:58.032Z,12.90
2022-08-08T23:20:27.417Z,12.87
2022-08-08T23:22:55.129Z,12.91
2022-08-08T23:25:23.481Z,12.94
2022-08-08T23:27:50.017Z,12.95
2022-08-08T23:30:22.718Z,12.96
2022-08-08T23:32:51.217Z,12.90
2022-08-08T23:35:18.859Z,12.81
2022-08-08T23:38:01.143Z,12.88
2022-08-08T23:40:30.367Z,12.82
2022-08-08T23:42:56.947Z,12.70
2022-08-08T23:49:00.409Z,12.71
2022-08-08T23:49:08.767Z,12.54
2022-08-08T23:50:58.023Z,12.57
2022-08-08T23:54:06.319Z,12.57
2022-08-08T23:56:12.127Z,12.45
2022-08-08T23:58:39.798Z,12.41
